createdAt,value
2023-03-26T00:01:35.373Z,99515.34
2023-03-26T00:04:03.840Z,99520.66
2023-03-26T00:06:34.044Z,99527.78
2023-03-26T00:09:01.849Z,99523.19
2023-03-26T00:11:29.797Z,99520.00
2023-03-26T00:13:58.186Z,99528.00
2023-03-26T00:16:29.541Z,99523.63
2023-03-26T00:18:57.791Z,99523.91
2023-03-26T00:21:27.411Z,99516.00
2023-03-26T00:24:00.686Z,99526.66
2023-03-26T00:26:28.427Z,99525.50
2023-03-26T00:28:55.651Z,99516.34
2023-03-26T00:31:23.079Z,99525.25
2023-03-26T00:33:52.323Z,99526.97
2023-03-26T00:36:19.626Z,99522.63
2023-03-26T00:38:47.542Z,99508.84
2023-03-26T00:41:17.546Z,99514.25
2023-03-26T00:43:46.432Z,99510.84
2023-03-26T00:46:17.454Z,99502.22
2023-03-26T00:48:46.346Z,99517.69
2023-03-26T00:51:15.981Z,99518.25
2023-03-26T00:53:45.401Z,99511.72
2023-03-26T00:56:13.195Z,99504.19
2023-03-26T00:58:41.470Z,99498.25
2023-03-26T01:01:12.408Z,99503.34
2023-03-26T01:03:42.722Z,99508.56
2023-03-26T01:06:34.038Z,99506.97
2023-03-26T01:09:23.645Z,99509.97
2023-03-26T01:11:51.080Z,99513.03
2023-03-26T01:14:23.266Z,99512.97
2023-03-26T01:16:56.957Z,99508.97
2023-03-26T01:19:44.457Z,99501.22
2023-03-26T01:22:17.199Z,99514.75
2023-03-26T01:24:44.710Z,99500.44
2023-03-26T01:27:38.326Z,99507.69
2023-03-26T01:30:48.442Z,99512.78
2023-03-26T01:33:37.559Z,99518.16
2023-03-26T01:36:23.932Z,99511.72
2023-03-26T01:39:16.154Z,99515.84
2023-03-26T01:41:47.406Z,99521.38
2023-03-26T01:44:27.205Z,99523.25
2023-03-26T01:46:55.311Z,99526.94
2023-03-26T01:49:22.818Z,99530.56
2023-03-26T01:51:51.156Z,99532.78
2023-03-26T01:54:22.388Z,99523.50
2023-03-26T01:57:26.429Z,99521.09
2023-03-26T02:00:31.628Z,99532.06
2023-03-26T02:03:13.363Z,99529.81
2023-03-26T02:05:49.104Z,99528.31
2023-03-26T02:08:40.374Z,99532.31
2023-03-26T02:11:12.196Z,99535.91
2023-03-26T02:13:42.031Z,99540.44
2023-03-26T02:16:12.487Z,99551.22
2023-03-26T02:18:40.835Z,99542.59
2023-03-26T02:21:14.667Z,99538.69
2023-03-26T02:23:44.013Z,99541.94
2023-03-26T02:26:11.576Z,99545.28
2023-03-26T02:28:38.988Z,99541.66
2023-03-26T02:31:07.708Z,99552.34
2023-03-26T02:33:35.403Z,99555.84
2023-03-26T02:36:04.539Z,99559.72
2023-03-26T02:38:32.661Z,99558.09
2023-03-26T02:41:00.104Z,99560.28
2023-03-26T02:43:28.482Z,99556.88
2023-03-26T02:45:56.361Z,99561.16
2023-03-26T02:48:24.006Z,99557.50
2023-03-26T02:50:51.368Z,99566.69
2023-03-26T02:53:18.950Z,99567.50
2023-03-26T02:55:46.217Z,99571.69
2023-03-26T02:58:14.093Z,99569.75
2023-03-26T03:00:41.888Z,99568.97
2023-03-26T03:03:09.369Z,99578.75
2023-03-26T03:05:36.783Z,99574.13
2023-03-26T03:08:05.075Z,99578.47
2023-03-26T03:10:32.672Z,99568.63
2023-03-26T03:13:00.233Z,99570.00
2023-03-26T03:15:27.556Z,99571.09
2023-03-26T03:17:54.810Z,99571.66
2023-03-26T03:20:22.325Z,99566.63
2023-03-26T03:22:49.652Z,99577.81
2023-03-26T03:25:17.086Z,99575.59
2023-03-26T03:27:44.967Z,99582.91
2023-03-26T03:30:13.648Z,99576.66
2023-03-26T03:32:41.151Z,99574.31
2023-03-26T03:35:09.056Z,99576.22
2023-03-26T03:37:36.423Z,99582.88
2023-03-26T03:40:05.195Z,99582.88
2023-03-26T03:42:32.533Z,99598.16
2023-03-26T03:45:07.378Z,99600.81
2023-03-26T03:47:34.805Z,99604.41
2023-03-26T03:50:03.612Z,99615.00
2023-03-26T03:52:32.166Z,99619.06
2023-03-26T03:55:00.275Z,99634.66
2023-03-26T03:57:28.900Z,99636.25
2023-03-26T03:59:56.698Z,99638.94
2023-03-26T04:02:26.255Z,99636.16
2023-03-26T04:04:55.426Z,99642.41
2023-03-26T04:07:24.688Z,99648.19
2023-03-26T04:09:53.168Z,99648.00
2023-03-26T04:12:21.034Z,99651.44
2023-03-26T04:14:49.221Z,99648.88
2023-03-26T04:17:16.603Z,99655.34
2023-03-26T04:19:43.888Z,99647.88
2023-03-26T04:22:12.199Z,99655.94
2023-03-26T04:24:39.635Z,99664.69
2023-03-26T04:27:15.070Z,99662.47
2023-03-26T04:29:46.039Z,99651.50
2023-03-26T04:32:32.686Z,99668.47
2023-03-26T04:35:04.344Z,99654.28
2023-03-26T04:37:40.997Z,99673.75
2023-03-26T04:40:13.769Z,99675.63
2023-03-26T04:42:41.213Z,99679.44
2023-03-26T04:45:09.406Z,99679.13
2023-03-26T04:47:36.945Z,99683.38
2023-03-26T04:50:10.405Z,99685.34
2023-03-26T04:52:38.277Z,99692.88
2023-03-26T04:55:12.422Z,99695.50
2023-03-26T04:57:44.292Z,99703.31
2023-03-26T05:00:14.370Z,99692.44
2023-03-26T05:02:45.488Z,99693.31
2023-03-26T05:05:13.684Z,99690.38
2023-03-26T05:07:41.642Z,99679.59
2023-03-26T05:10:13.533Z,99690.50
2023-03-26T05:12:41.787Z,99686.50
2023-03-26T05:15:11.253Z,99685.91
2023-03-26T05:17:38.917Z,99693.72
2023-03-26T05:20:06.812Z,99694.00
2023-03-26T05:22:36.024Z,99699.66
2023-03-26T05:25:05.354Z,99703.25
2023-03-26T05:27:33.415Z,99702.03
2023-03-26T05:30:02.297Z,99707.78
2023-03-26T05:32:31.006Z,99707.63
2023-03-26T05:34:59.187Z,99704.38
2023-03-26T05:37:29.065Z,99706.94
2023-03-26T05:39:57.183Z,99721.50
2023-03-26T05:42:24.500Z,99719.00
2023-03-26T05:44:51.917Z,99717.91
2023-03-26T05:47:19.318Z,99718.66
2023-03-26T05:49:47.035Z,99733.16
2023-03-26T05:52:14.404Z,99727.03
2023-03-26T05:54:42.401Z,99726.75
2023-03-26T05:57:09.755Z,99723.00
2023-03-26T05:59:37.642Z,99720.19
2023-03-26T06:02:05.183Z,99728.53
2023-03-26T06:04:33.099Z,99726.88
2023-03-26T06:07:00.709Z,99730.03
2023-03-26T06:09:28.874Z,99724.38
2023-03-26T06:11:56.448Z,99714.97
2023-03-26T06:14:23.878Z,99726.16
2023-03-26T06:16:51.621Z,99730.22
2023-03-26T06:19:18.948Z,99742.13
2023-03-26T06:21:46.308Z,99739.94
2023-03-26T06:24:13.762Z,99738.38
2023-03-26T06:26:41.233Z,99742.06
2023-03-26T06:29:08.922Z,99753.50
2023-03-26T06:31:36.554Z,99751.13
2023-03-26T06:34:03.870Z,99755.22
2023-03-26T06:36:31.448Z,99758.22
2023-03-26T06:38:58.962Z,99762.00
2023-03-26T06:41:26.428Z,99763.41
2023-03-26T06:43:53.770Z,99761.28
2023-03-26T06:46:21.487Z,99763.66
2023-03-26T06:48:49.115Z,99757.22
2023-03-26T06:51:16.643Z,99757.31
2023-03-26T06:53:44.074Z,99756.97
2023-03-26T06:56:11.550Z,99759.88
2023-03-26T06:58:38.852Z,99758.66
2023-03-26T07:01:06.438Z,99769.41
2023-03-26T07:03:33.847Z,99765.44
2023-03-26T07:06:01.358Z,99771.56
2023-03-26T07:08:34.623Z,99758.75
2023-03-26T07:11:02.072Z,99764.00
2023-03-26T07:13:30.047Z,99751.47
2023-03-26T07:15:57.846Z,99754.00
2023-03-26T07:18:25.223Z,99746.16
2023-03-26T07:20:53.117Z,99746.13
2023-03-26T07:23:21.190Z,99739.03
2023-03-26T07:25:48.988Z,99734.06
2023-03-26T07:28:22.181Z,99730.31
2023-03-26T07:31:00.618Z,99721.56
2023-03-26T07:33:56.212Z,99727.53
2023-03-26T07:36:26.416Z,99723.91
2023-03-26T07:39:34.786Z,99716.44
2023-03-26T07:42:30.561Z,99717.44
2023-03-26T07:44:57.883Z,99715.66
2023-03-26T07:47:32.750Z,99711.50
2023-03-26T07:50:00.484Z,99708.13
2023-03-26T07:52:28.447Z,99717.81
2023-03-26T07:54:56.136Z,99710.88
2023-03-26T07:57:51.620Z,99706.91
2023-03-26T08:00:37.334Z,99701.97
2023-03-26T08:03:18.586Z,99709.59
2023-03-26T08:06:21.390Z,99708.53
2023-03-26T08:08:48.764Z,99704.94
2023-03-26T08:11:15.995Z,99699.47
2023-03-26T08:13:58.382Z,99703.94
2023-03-26T08:16:44.279Z,99702.03
2023-03-26T08:19:34.582Z,99701.22
2023-03-26T08:22:16.574Z,99696.53
2023-03-26T08:25:06.531Z,99700.53
2023-03-26T08:27:39.977Z,99712.84
2023-03-26T08:30:10.815Z,99704.63
2023-03-26T08:32:38.508Z,99707.16
2023-03-26T08:35:06.468Z,99706.31
2023-03-26T08:37:33.982Z,99719.94
2023-03-26T08:40:01.446Z,99726.72
2023-03-26T08:43:01.383Z,99716.53
2023-03-26T08:45:49.015Z,99724.31
2023-03-26T08:48:22.566Z,99723.03
2023-03-26T08:51:08.897Z,99726.94
2023-03-26T08:54:10.830Z,99728.53
2023-03-26T08:57:12.088Z,99730.91
2023-03-26T08:59:54.354Z,99722.50
2023-03-26T09:02:52.470Z,99726.44
2023-03-26T09:05:54.552Z,99728.81
2023-03-26T09:08:30.727Z,99724.84
2023-03-26T09:11:25.713Z,99727.09
2023-03-26T09:14:08.972Z,99729.47
2023-03-26T09:16:54.774Z,99742.91
2023-03-26T09:19:31.269Z,99735.69
2023-03-26T09:22:17.410Z,99726.00
2023-03-26T09:25:03.519Z,99718.91
2023-03-26T09:27:33.985Z,99718.84
2023-03-26T09:30:31.862Z,99714.97
2023-03-26T09:33:11.248Z,99710.00
2023-03-26T09:35:55.837Z,99703.38
2023-03-26T09:38:38.460Z,99703.84
2023-03-26T09:41:15.572Z,99695.56
2023-03-26T09:44:04.342Z,99701.00
2023-03-26T09:46:49.085Z,99701.38
2023-03-26T09:49:26.056Z,99697.88
2023-03-26T09:52:03.521Z,99698.41
2023-03-26T09:54:46.897Z,99694.53
2023-03-26T09:57:23.377Z,99687.22
2023-03-26T10:00:20.554Z,99702.91
2023-03-26T10:03:09.911Z,99698.75
2023-03-26T10:05:40.326Z,99682.50
2023-03-26T10:08:23.067Z,99693.91
2023-03-26T10:10:54.262Z,99687.88
2023-03-26T10:13:33.769Z,99676.72
2023-03-26T10:16:23.119Z,99685.69
2023-03-26T10:19:10.731Z,99694.63
2023-03-26T10:21:50.112Z,99681.00
2023-03-26T10:24:28.837Z,99672.84
2023-03-26T10:27:17.749Z,99672.09
2023-03-26T10:30:37.755Z,99670.13
2023-03-26T10:33:20.521Z,99668.59
2023-03-26T10:35:57.083Z,99660.59
2023-03-26T10:38:43.294Z,99665.25
2023-03-26T10:41:23.750Z,99655.97
2023-03-26T10:44:15.413Z,99634.97
2023-03-26T10:46:54.200Z,99639.56
2023-03-26T10:50:04.466Z,99637.69
2023-03-26T10:52:36.723Z,99635.09
2023-03-26T10:55:14.973Z,99623.59
2023-03-26T10:57:45.747Z,99630.22
2023-03-26T11:00:28.212Z,99627.59
2023-03-26T11:03:13.691Z,99629.03
2023-03-26T11:06:03.111Z,99608.91
2023-03-26T11:08:49.907Z,99620.91
2023-03-26T11:11:35.592Z,99607.78
2023-03-26T11:14:10.533Z,99608.97
2023-03-26T11:17:40.983Z,99607.19
2023-03-26T11:20:06.091Z,99597.34
2023-03-26T11:22:50.243Z,99600.56
2023-03-26T11:25:32.284Z,99592.19
2023-03-26T11:28:21.589Z,99597.34
2023-03-26T11:31:13.543Z,99591.31
2023-03-26T11:33:46.413Z,99592.47
2023-03-26T11:36:22.561Z,99586.59
2023-03-26T11:38:51.733Z,99586.75
2023-03-26T11:41:27.831Z,99584.59
2023-03-26T11:44:03.131Z,99577.25
2023-03-26T11:46:33.842Z,99587.34
2023-03-26T11:49:09.985Z,99590.09
2023-03-26T11:51:39.633Z,99591.13
2023-03-26T11:54:08.050Z,99582.78
2023-03-26T11:57:05.497Z,99573.00
2023-03-26T11:59:57.990Z,99580.06
2023-03-26T12:02:28.640Z,99568.22
2023-03-26T12:05:17.329Z,99572.00
2023-03-26T12:08:11.310Z,99564.53
2023-03-26T12:10:42.025Z,99570.16
2023-03-26T12:13:35.570Z,99562.19
2023-03-26T12:16:23.797Z,99563.19
2023-03-26T12:19:17.340Z,99560.41
2023-03-26T12:21:48.101Z,99556.53
2023-03-26T12:24:29.158Z,99548.06
2023-03-26T12:27:01.014Z,99544.81
2023-03-26T12:29:31.536Z,99536.75
2023-03-26T12:32:13.311Z,99540.16
2023-03-26T12:34:41.758Z,99542.84
2023-03-26T12:37:35.287Z,99543.94
2023-03-26T12:40:32.132Z,99547.31
2023-03-26T12:44:53.414Z,99534.91
2023-03-26T12:47:54.142Z,99544.53
2023-03-26T12:48:45.460Z,99532.97
2023-03-26T12:51:55.856Z,99529.53
2023-03-26T12:54:55.192Z,99519.22
2023-03-26T12:57:33.018Z,99513.84
2023-03-26T13:00:16.160Z,99518.53
2023-03-26T13:03:04.385Z,99518.63
2023-03-26T13:06:02.841Z,99519.66
2023-03-26T13:08:54.535Z,99511.34
2023-03-26T13:11:33.796Z,99499.09
2023-03-26T13:14:16.968Z,99503.56
2023-03-26T13:16:56.897Z,99503.09
2023-03-26T13:19:40.341Z,99487.25
2023-03-26T13:22:29.201Z,99484.81
2023-03-26T13:25:15.860Z,99474.81
2023-03-26T13:28:27.462Z,99475.50
2023-03-26T13:31:00.698Z,99476.97
2023-03-26T13:33:40.206Z,99472.75
2023-03-26T13:36:23.258Z,99466.38
2023-03-26T13:39:22.291Z,99470.06
2023-03-26T13:42:05.937Z,99469.31
2023-03-26T13:44:48.587Z,99455.13
2023-03-26T13:47:25.942Z,99456.06
2023-03-26T13:50:03.565Z,99456.47
2023-03-26T13:52:40.664Z,99447.78
2023-03-26T13:55:32.474Z,99457.09
2023-03-26T13:58:08.983Z,99446.34
2023-03-26T14:00:50.831Z,99453.78
2023-03-26T14:03:33.594Z,99452.09
2023-03-26T14:06:06.546Z,99452.22
2023-03-26T14:08:47.279Z,99438.72
2023-03-26T14:11:28.354Z,99449.63
2023-03-26T14:14:10.261Z,99442.41
2023-03-26T14:16:48.055Z,99435.09
2023-03-26T14:19:24.853Z,99444.41
2023-03-26T14:21:54.923Z,99435.28
2023-03-26T14:24:34.763Z,99438.38
2023-03-26T14:27:37.416Z,99428.81
2023-03-26T14:30:35.135Z,99435.75
2023-03-26T14:33:11.269Z,99434.88
2023-03-26T14:35:57.766Z,99427.50
2023-03-26T14:38:57.935Z,99418.84
2023-03-26T14:41:33.083Z,99425.03
2023-03-26T14:44:28.794Z,99424.53
2023-03-26T14:47:16.923Z,99422.59
2023-03-26T14:50:08.945Z,99434.34
2023-03-26T14:52:52.325Z,99427.09
2023-03-26T14:56:05.533Z,99428.97
2023-03-26T14:58:59.225Z,99429.56
2023-03-26T15:01:46.813Z,99426.00
2023-03-26T15:04:39.137Z,99442.81
2023-03-26T15:07:36.223Z,99425.91
2023-03-26T15:10:11.967Z,99427.34
2023-03-26T15:13:07.695Z,99420.84
2023-03-26T15:15:59.991Z,99429.41
2023-03-26T15:18:45.367Z,99424.00
2023-03-26T15:21:43.374Z,99427.19
2023-03-26T15:24:16.483Z,99431.91
2023-03-26T15:27:22.838Z,99425.34
2023-03-26T15:30:00.772Z,99436.69
2023-03-26T15:32:50.057Z,99432.41
2023-03-26T15:35:46.615Z,99436.47
2023-03-26T15:38:38.919Z,99441.34
2023-03-26T15:41:25.194Z,99443.81
2023-03-26T15:44:24.389Z,99444.72
2023-03-26T15:47:25.696Z,99441.91
2023-03-26T15:50:22.863Z,99441.03
2023-03-26T15:53:31.838Z,99444.06
2023-03-26T15:56:15.990Z,99443.50
2023-03-26T15:58:55.962Z,99440.00
2023-03-26T16:01:48.048Z,99439.28
2023-03-26T16:04:28.888Z,99444.84
2023-03-26T16:07:45.164Z,99448.94
2023-03-26T16:10:33.745Z,99438.47
2023-03-26T16:13:17.135Z,99451.59
2023-03-26T16:16:03.712Z,99447.47
2023-03-26T16:18:35.660Z,99446.97
2023-03-26T16:21:32.308Z,99448.63
2023-03-26T16:24:03.074Z,99455.66
2023-03-26T16:26:46.388Z,99453.88
2023-03-26T16:29:13.780Z,99461.19
2023-03-26T16:31:59.741Z,99461.16
2023-03-26T16:34:37.725Z,99448.22
2023-03-26T16:37:26.071Z,99458.13
2023-03-26T16:39:54.082Z,99459.22
2023-03-26T16:42:39.840Z,99459.66
2023-03-26T16:45:32.784Z,99463.25
2023-03-26T16:48:25.721Z,99461.28
2023-03-26T16:50:57.637Z,99461.66
2023-03-26T16:53:59.764Z,99456.94
2023-03-26T16:56:37.319Z,99459.44
2023-03-26T16:59:09.153Z,99455.50
2023-03-26T17:01:47.438Z,99452.44
2023-03-26T17:04:19.528Z,99457.47
2023-03-26T17:07:14.568Z,99460.81
2023-03-26T17:09:59.274Z,99453.56
2023-03-26T17:12:44.297Z,99456.31
2023-03-26T17:15:30.442Z,99459.31
2023-03-26T17:18:25.290Z,99464.06
2023-03-26T17:20:58.703Z,99462.53
2023-03-26T17:23:47.177Z,99465.03
2023-03-26T17:26:31.222Z,99471.03
2023-03-26T17:29:13.991Z,99479.31
2023-03-26T17:32:02.060Z,99467.72
2023-03-26T17:34:33.954Z,99474.09
2023-03-26T17:37:04.252Z,99475.38
2023-03-26T17:39:40.712Z,99478.56
2023-03-26T17:42:22.488Z,99484.88
2023-03-26T17:44:51.681Z,99483.03
2023-03-26T17:47:37.329Z,99493.34
2023-03-26T17:50:27.585Z,99484.34
2023-03-26T17:53:01.128Z,99483.56
2023-03-26T17:55:36.354Z,99485.47
2023-03-26T17:58:07.646Z,99484.03
2023-03-26T18:00:49.636Z,99482.44
2023-03-26T18:03:31.047Z,99478.34
2023-03-26T18:06:08.377Z,99478.13
2023-03-26T18:09:14.583Z,99478.47
2023-03-26T18:12:00.723Z,99475.78
2023-03-26T18:14:53.658Z,99473.56
2023-03-26T18:17:21.377Z,99478.47
2023-03-26T18:19:53.979Z,99466.78
2023-03-26T18:22:28.408Z,99472.00
2023-03-26T18:25:01.064Z,99467.09
2023-03-26T18:27:40.641Z,99463.31
2023-03-26T18:30:15.898Z,99466.13
2023-03-26T18:33:01.578Z,99464.25
2023-03-26T18:35:49.772Z,99475.31
2023-03-26T18:38:34.983Z,99469.63
2023-03-26T18:41:09.741Z,99475.78
2023-03-26T18:43:44.410Z,99478.41
2023-03-26T18:46:17.783Z,99475.91
2023-03-26T18:48:46.649Z,99471.78
2023-03-26T18:51:14.209Z,99466.53
2023-03-26T18:53:52.086Z,99459.25
2023-03-26T18:56:35.863Z,99454.84
2023-03-26T18:59:06.928Z,99448.50
2023-03-26T19:01:37.329Z,99440.59
2023-03-26T19:04:06.967Z,99448.13
2023-03-26T19:06:38.453Z,99441.84
2023-03-26T19:09:19.584Z,99435.19
2023-03-26T19:11:57.311Z,99431.66
2023-03-26T19:14:25.179Z,99435.47
2023-03-26T19:17:00.450Z,99426.28
2023-03-26T19:19:35.684Z,99426.75
2023-03-26T19:22:07.454Z,99424.94
2023-03-26T19:24:35.133Z,99430.28
2023-03-26T19:27:03.433Z,99428.22
2023-03-26T19:29:36.005Z,99424.50
2023-03-26T19:32:21.640Z,99428.88
2023-03-26T19:34:49.477Z,99428.19
2023-03-26T19:37:19.001Z,99424.25
2023-03-26T19:39:50.210Z,99423.28
2023-03-26T19:42:20.211Z,99417.78
2023-03-26T19:44:48.046Z,99415.38
2023-03-26T19:47:25.001Z,99416.84
2023-03-26T19:50:27.415Z,99413.69
2023-03-26T19:53:29.880Z,99416.03
2023-03-26T19:56:16.570Z,99415.53
2023-03-26T19:58:44.188Z,99408.78
2023-03-26T20:01:30.826Z,99406.81
2023-03-26T20:04:02.081Z,99405.06
2023-03-26T20:06:41.715Z,99396.59
2023-03-26T20:09:12.558Z,99402.03
2023-03-26T20:11:40.222Z,99404.16
2023-03-26T20:14:18.917Z,99405.06
2023-03-26T20:16:46.419Z,99402.03
2023-03-26T20:19:15.490Z,99398.19
2023-03-26T20:21:44.567Z,99400.16
2023-03-26T20:24:15.042Z,99388.00
2023-03-26T20:26:43.993Z,99382.00
2023-03-26T20:29:15.236Z,99376.19
2023-03-26T20:31:43.300Z,99384.78
2023-03-26T20:34:20.421Z,99379.31
2023-03-26T20:36:48.719Z,99366.88
2023-03-26T20:39:16.164Z,99364.06
2023-03-26T20:41:48.808Z,99360.63
2023-03-26T20:44:19.902Z,99351.69
2023-03-26T20:46:48.774Z,99352.47
2023-03-26T20:49:16.250Z,99343.88
2023-03-26T20:51:43.993Z,99351.41
2023-03-26T20:54:20.599Z,99345.13
2023-03-26T20:56:49.419Z,99344.09
2023-03-26T20:59:20.465Z,99342.97
2023-03-26T21:01:50.957Z,99322.75
2023-03-26T21:04:28.927Z,99328.50
2023-03-26T21:07:07.176Z,99331.28
2023-03-26T21:09:43.043Z,99320.41
2023-03-26T21:12:27.788Z,99312.53
2023-03-26T21:14:55.832Z,99313.75
2023-03-26T21:17:23.984Z,99306.44
2023-03-26T21:19:55.138Z,99308.75
2023-03-26T21:23:03.808Z,99305.34
2023-03-26T21:25:48.218Z,99306.56
2023-03-26T21:28:41.996Z,99301.06
2023-03-26T21:31:16.404Z,99292.31
2023-03-26T21:33:44.659Z,99287.53
2023-03-26T21:36:12.494Z,99290.28
2023-03-26T21:38:40.956Z,99290.69
2023-03-26T21:41:24.922Z,99280.09
2023-03-26T21:43:52.325Z,99283.56
2023-03-26T21:46:19.991Z,99270.91
2023-03-26T21:48:47.630Z,99270.59
2023-03-26T21:51:15.908Z,99272.38
2023-03-26T21:53:43.469Z,99260.59
2023-03-26T21:56:41.604Z,99263.19
2023-03-26T21:59:16.889Z,99252.59
2023-03-26T22:02:22.642Z,99255.22
2023-03-26T22:05:15.080Z,99250.00
2023-03-26T22:07:58.678Z,99237.25
2023-03-26T22:10:29.167Z,99233.19
2023-03-26T22:12:59.069Z,99227.31
2023-03-26T22:15:26.548Z,99237.88
2023-03-26T22:17:54.307Z,99239.88
2023-03-26T22:20:23.605Z,99242.13
2023-03-26T22:22:51.155Z,99230.56
2023-03-26T22:25:20.352Z,99227.94
2023-03-26T22:27:50.628Z,99224.38
2023-03-26T22:30:18.763Z,99219.00
2023-03-26T22:32:46.711Z,99227.16
2023-03-26T22:35:14.285Z,99223.13
2023-03-26T22:37:41.998Z,99209.00
2023-03-26T22:40:09.934Z,99210.88
2023-03-26T22:42:39.695Z,99214.59
2023-03-26T22:45:11.016Z,99202.38
2023-03-26T22:47:41.299Z,99204.31
2023-03-26T22:50:09.410Z,99197.81
2023-03-26T22:52:37.565Z,99192.25
2023-03-26T22:55:05.212Z,99205.28
2023-03-26T22:57:32.970Z,99213.16
2023-03-26T23:00:00.350Z,99210.69
2023-03-26T23:02:27.828Z,99208.63
2023-03-26T23:04:55.183Z,99203.81
2023-03-26T23:07:22.596Z,99215.28
2023-03-26T23:09:50.048Z,99209.47
2023-03-26T23:12:17.307Z,99198.97
2023-03-26T23:14:44.729Z,99205.78
2023-03-26T23:17:12.212Z,99203.22
2023-03-26T23:19:39.490Z,99207.66
2023-03-26T23:22:06.888Z,99205.56
2023-03-26T23:24:34.511Z,99201.63
2023-03-26T23:27:01.980Z,99204.31
2023-03-26T23:29:29.286Z,99188.25
2023-03-26T23:31:56.567Z,99183.81
2023-03-26T23:34:25.885Z,99190.53
2023-03-26T23:36:53.215Z,99179.03
2023-03-26T23:39:21.013Z,99169.25
2023-03-26T23:41:48.538Z,99179.06
2023-03-26T23:44:16.051Z,99169.16
2023-03-26T23:46:43.381Z,99153.03
2023-03-26T23:49:10.939Z,99146.69
2023-03-26T23:51:38.279Z,99136.38
2023-03-26T23:54:05.690Z,99138.63
2023-03-26T23:56:33.584Z,99142.50
2023-03-26T23:59:00.976Z,99134.78
